Domov               UVHVVR             MKGP            O straneh              
ZDRAVSTVENO VARSTVO RASTLIN
  MREŽA AGROMET. POSTAJ
 ► PROGNOSTIČNA OBVESTILA
AGROMETEOROLOŠKI PODATKI -
ARSO
OBVLADOVANJE TVEGANJ ZARADI
NEUGODNIH VREMENSKIH RAZMER
  ► NARAVNE NESREČE
  ► SUŠA/MOČA
  ► NAMAKANJE
  ► ŽLED (gozdarstvo)
KARTOGRAFSKI PRIKAZI
SPLETNE POVEZAVE
PROJEKTI IN PUBLIKACIJE

AGROMETEOROLOŠKA MREŽA: VREMENSKE POSTAJE IN FENOLOŠKA OPAZOVANJA

Pregled podatkov za lokacijo Šlovrenc, meteorološka postaja 859088

Pregled senzorjev na lokaciji

ID Ime Zadnja
vrednost
Datum in čas
zadnje
spremembe
(Lokalni čas)
Tip
senzorja
4325 Omočenost lista (U) 0 U 18.10.2019 17:00 A730WET
3976 Padavine (mm) 0 mm 18.10.2019 17:00 Rain-O-Matic
3974 Relativna vlaga 2 m (% RH) 72.99 % RH 18.10.2019 17:00 50YA
3973 Temperatura 2 m (°C) 18.73 °C 18.10.2019 17:00 50YA

Pregled podatkov zadnjih 24 ur

Zap.
št.
Datum in čas
(Centralno
evropski čas)
Šlovrenc
Omočenost
lista
Padavine Relativna
vlaga
2
m
Temperatura
2
m
1 18.10.2019 17:30
2 18.10.2019 17:00
3 18.10.2019 16:30
4 18.10.2019 16:00 0 0 73 18.7
5 18.10.2019 15:30 0 0 71.7 19.2
6 18.10.2019 15:00 0 0 71 19.5
7 18.10.2019 14:30 0 0 68.8 19.8
8 18.10.2019 14:00 0 0 70.5 19.7
9 18.10.2019 13:30 0 0 68.1 20.5
10 18.10.2019 13:00 0 0 69.6 20.5
11 18.10.2019 12:30 0 0 73.1 19.9
12 18.10.2019 12:00 0 0 75 19.7
13 18.10.2019 11:30 0 0 74.9 19.7
14 18.10.2019 11:00 0 0 80.6 19
15 18.10.2019 10:30 8 0 88.8 18.1
16 18.10.2019 10:00 10 0 94.9 17.4
17 18.10.2019 09:30 10 0 99.9 16.7
18 18.10.2019 09:00 10 0 100 16.3
19 18.10.2019 08:30 10 0 100 15.7
20 18.10.2019 08:00 10 0 100 15.1
21 18.10.2019 07:30 10 0 100 14.6
22 18.10.2019 07:00 10 0 100 14.4
23 18.10.2019 06:30 10 0 100 14.1
24 18.10.2019 06:00 10 0 100 14
25 18.10.2019 05:30 10 0 100 14
26 18.10.2019 05:00 10 0 100 13.8
27 18.10.2019 04:30 10 0 100 13.8
28 18.10.2019 04:00 10 0 100 13.7
29 18.10.2019 03:30 10 0 100 13.5
30 18.10.2019 03:00 10 0 100 13.2
31 18.10.2019 02:30 10 0 100 13.1
32 18.10.2019 02:00 10 0 100 12.8
33 18.10.2019 01:30 10 0 100 12.7
34 18.10.2019 01:00 10 0 100 12.7
35 18.10.2019 00:30 10 0 100 12.4
36 18.10.2019 00:00 10 0 100 12.3
37 17.10.2019 23:30 10 0 100 11.9
38 17.10.2019 23:00 10 0 100 11.7
39 17.10.2019 22:30 10 0 100 12
40 17.10.2019 22:00 10 0 100 12.4
41 17.10.2019 21:30 10 0 100 13
42 17.10.2019 21:00 10 0 100 12.8
43 17.10.2019 20:30 10 0 100 13.2
44 17.10.2019 20:00 10 0 99.8 12.8
45 17.10.2019 19:30 10 0 99.4 12.9
46 17.10.2019 19:00 10 0 98.5 12.9
47 17.10.2019 18:30 10 0 97.8 13.6
48 17.10.2019 18:00 6 0 96.6 14
© 2011 Ministrstvo za kmetijstvo, gozdarstvo in prehrano. Vse pravice pridržane.